Time;durP1;ratioP1;P1;durP2;ratioP2;P2;SDS_P1;SDS_P2;PMS_P1;PMS_P2;Temp;Humidity;BMP_temperature;BMP_pressure;BME280_temperature;BME280_humidity;BME280_pressure;Samples;Min_cycle;Max_cycle;Signal;HPM_P1;HPM_P2
2023/07/01 00:00:50;;;;;;;;;0.50;0.50;;;;;-146.67;42.45;74194.47;5101646;27;61906;-79
2023/07/01 00:03:15;;;;;;;;;1.75;1.00;;;;;-146.67;42.48;74200.44;5102110;27;61967;-79
2023/07/01 00:05:40;;;;;;;;;2.00;2.00;;;;;-146.67;42.28;74196.47;5101248;27;61913;-79
2023/07/01 00:08:06;;;;;;;;;2.25;1.00;;;;;-146.67;41.93;74180.50;5102004;27;61724;-79
2023/07/01 00:10:31;;;;;;;;;2.25;2.25;;;;;-146.67;41.75;74170.50;5101528;27;62197;-79
2023/07/01 00:12:57;;;;;;;;;4.00;2.75;;;;;-146.67;41.71;74170.50;5101183;27;61830;-79
2023/07/01 00:15:22;;;;;;;;;3.50;3.00;;;;;-146.67;42.26;74174.50;5101164;27;62015;-79
2023/07/01 00:17:47;;;;;;;;;4.00;4.00;;;;;-146.67;42.84;74180.50;5101394;27;62121;-80
2023/07/01 00:20:13;;;;;;;;;2.25;2.00;;;;;-146.67;42.41;74170.50;5100408;27;61976;-80
2023/07/01 00:22:38;;;;;;;;;4.50;3.00;;;;;-146.67;42.50;74166.50;5084958;27;61803;-79
2023/07/01 00:25:04;;;;;;;;;1.75;1.75;;;;;-146.67;42.55;74168.50;5084011;27;62869;-80
2023/07/01 00:27:29;;;;;;;;;4.50;2.00;;;;;-146.67;42.68;74172.50;5084269;27;61758;-79
2023/07/01 00:29:55;;;;;;;;;9.00;4.00;;;;;-146.67;42.65;74184.47;5100224;27;61817;-79
2023/07/01 00:32:20;;;;;;;;;6.00;5.00;;;;;-146.67;42.77;74192.47;5084734;27;61692;-79
2023/07/01 00:34:45;;;;;;;;;4.00;4.00;;;;;-146.67;42.62;74184.47;5083706;27;62983;-80
2023/07/01 00:37:11;;;;;;;;;5.25;4.00;;;;;-146.67;42.65;74172.50;5084284;27;61993;-80
2023/07/01 00:39:36;;;;;;;;;1.00;1.00;;;;;-146.67;42.94;74180.50;5084461;27;61875;-79
2023/07/01 00:42:02;;;;;;;;;2.00;2.00;;;;;-146.67;42.75;74174.50;5099509;27;61717;-79
2023/07/01 00:44:27;;;;;;;;;2.00;1.00;;;;;-146.67;43.47;74180.50;5103759;27;63006;-79
2023/07/01 00:46:54;;;;;;;;;0.75;0.75;;;;;-146.67;43.99;74166.50;5103268;27;61762;-79
2023/07/01 00:49:19;;;;;;;;;1.00;1.00;;;;;-146.67;43.89;74164.53;5120324;27;61819;-79
2023/07/01 00:51:45;;;;;;;;;1.00;1.00;;;;;-146.67;42.73;74160.53;5120306;27;62115;-79
2023/07/01 00:54:11;;;;;;;;;0.75;0.75;;;;;-146.67;42.81;74164.53;5103890;27;62150;-79
2023/07/01 00:56:36;;;;;;;;;2.00;2.00;;;;;-146.67;43.19;74164.53;5119381;27;61925;-79
2023/07/01 00:59:02;;;;;;;;;1.50;1.00;;;;;-146.67;42.99;74152.53;5102668;27;62891;-79
2023/07/01 01:01:34;;;;;;;;;1.25;1.25;;;;;-146.67;43.90;74156.53;5120600;27;61995;-78
2023/07/01 01:04:11;;;;;;;;;1.75;0.75;;;;;-146.67;43.92;74174.50;5103513;27;61958;-79
2023/07/01 01:06:43;;;;;;;;;1.00;1.00;;;;;-146.67;44.04;74182.50;5120302;27;62034;-79
2023/07/01 01:09:11;;;;;;;;;4.50;1.50;;;;;-146.67;44.59;74188.47;5104296;27;61769;-79
2023/07/01 01:11:42;;;;;;;;;2.00;2.00;;;;;-146.67;44.87;74200.44;5099227;27;61912;-78
2023/07/01 01:14:12;;;;;;;;;2.75;1.25;;;;;-146.67;45.37;74210.44;5102447;27;63969;-78
2023/07/01 01:16:41;;;;;;;;;5.00;3.50;;;;;-146.67;45.49;74218.41;5104115;27;61956;-78
2023/07/01 01:19:40;;;;;;;;;1.75;1.75;;;;;-146.67;45.62;74212.44;5103516;27;61840;-79
2023/07/01 01:22:18;;;;;;;;;1.50;1.50;;;;;-146.67;46.27;74230.41;5104203;27;61811;-79
2023/07/01 01:24:50;;;;;;;;;1.00;1.00;;;;;-146.67;46.09;74238.38;5102027;27;65157;-79
2023/07/01 01:27:23;;;;;;;;;0.50;0.50;;;;;-146.67;46.33;74242.38;5103872;27;61709;-79
2023/07/01 01:29:49;;;;;;;;;2.50;1.00;;;;;-146.67;46.53;74236.38;5103912;27;61797;-78
2023/07/01 01:32:14;;;;;;;;;1.00;1.00;;;;;-146.67;46.15;74246.38;5119913;27;61853;-79
2023/07/01 01:34:40;;;;;;;;;0.75;0.75;;;;;-146.67;46.74;74238.38;5103535;27;61911;-79
2023/07/01 01:37:12;;;;;;;;;0.75;0.75;;;;;-146.67;46.07;74234.38;5103589;27;62003;-79
2023/07/01 01:39:43;;;;;;;;;1.25;1.25;;;;;-146.67;46.15;74230.41;5119112;27;61976;-78
2023/07/01 01:42:29;;;;;;;;;2.00;1.00;;;;;-146.67;46.09;74238.38;5102423;27;62321;-79
2023/07/01 01:44:56;;;;;;;;;1.00;1.00;;;;;-146.67;46.49;74238.38;5102875;27;62125;-78
2023/07/01 01:47:25;;;;;;;;;0.50;0.50;;;;;-146.67;46.63;74224.41;5103282;27;61983;-79
2023/07/01 01:49:55;;;;;;;;;1.00;1.00;;;;;-146.67;46.63;74218.41;5103762;27;61797;-79
2023/07/01 01:52:22;;;;;;;;;0.50;0.50;;;;;-146.67;46.75;74218.41;5103827;27;62174;-79
2023/07/01 01:54:50;;;;;;;;;1.00;1.00;;;;;-146.67;46.72;74220.41;5102185;27;61997;-79
2023/07/01 01:57:15;;;;;;;;;1.75;1.50;;;;;-146.67;46.38;74214.44;5102840;27;61804;-79
2023/07/01 01:59:43;;;;;;;;;3.00;2.00;;;;;-146.67;46.40;74212.44;5102186;27;61745;-79
2023/07/01 02:02:09;;;;;;;;;3.00;1.00;;;;;-146.67;46.61;74216.44;5103756;27;61799;-79
2023/07/01 02:04:35;;;;;;;;;1.00;1.00;;;;;-146.67;46.32;74216.44;5101253;27;63707;-78
2023/07/01 02:07:00;;;;;;;;;2.00;2.00;;;;;-146.67;46.91;74214.44;5103518;27;61766;-78
2023/07/01 02:09:25;;;;;;;;;1.00;1.00;;;;;-146.67;46.47;74200.44;5084941;27;62070;-79
2023/07/01 02:11:51;;;;;;;;;5.00;1.00;;;;;-146.67;46.43;74198.47;5092158;27;62084;-79
2023/07/01 02:14:16;;;;;;;;;0.75;0.75;;;;;-146.67;46.65;74200.44;5102726;27;62565;-79
2023/07/01 02:16:42;;;;;;;;;0.75;0.75;;;;;-146.67;46.44;74190.47;5103364;27;61842;-79
2023/07/01 02:19:07;;;;;;;;;3.50;1.75;;;;;-146.67;46.52;74190.47;5101403;27;62036;-78
2023/07/01 02:21:33;;;;;;;;;0.75;0.75;;;;;-146.67;46.43;74184.47;5089579;27;61785;-79
2023/07/01 02:23:59;;;;;;;;;0.00;0.00;;;;;-146.67;46.23;74188.47;5082194;27;61754;-79
2023/07/01 02:26:24;;;;;;;;;0.00;0.00;;;;;-146.67;46.39;74184.47;5101296;27;61959;-79
2023/07/01 02:28:50;;;;;;;;;0.75;0.75;;;;;-146.67;46.51;74178.50;5100147;27;62055;-79
2023/07/01 02:31:18;;;;;;;;;1.00;0.00;;;;;-146.67;46.46;74180.50;5082922;27;61928;-78
2023/07/01 02:33:46;;;;;;;;;1.00;0.00;;;;;-146.67;46.44;74196.47;5082259;27;62812;-78
2023/07/01 02:36:12;;;;;;;;;2.50;1.75;;;;;-146.67;46.51;74202.44;5082732;27;61823;-78
2023/07/01 02:38:37;;;;;;;;;1.00;1.00;;;;;-146.67;46.66;74194.47;5081751;27;61986;-78
2023/07/01 02:41:03;;;;;;;;;0.75;0.75;;;;;-146.67;46.38;74174.50;5081794;27;61953;-78
2023/07/01 02:43:28;;;;;;;;;1.00;1.00;;;;;-146.67;46.59;74182.50;5097254;27;63682;-79
2023/07/01 02:45:54;;;;;;;;;0.00;0.00;;;;;-146.67;46.76;74184.47;5082296;27;61918;-78
2023/07/01 02:48:19;;;;;;;;;0.00;0.00;;;;;-146.67;46.43;74182.50;5097562;27;61959;-78
2023/07/01 02:50:44;;;;;;;;;0.00;0.00;;;;;-146.67;46.52;74174.50;5082502;27;61818;-78
2023/07/01 02:53:10;;;;;;;;;0.00;0.00;;;;;-146.67;46.77;74184.47;5081191;27;61873;-78
2023/07/01 02:55:36;;;;;;;;;0.00;0.00;;;;;-146.67;46.89;74192.47;5080381;27;62155;-79
2023/07/01 02:58:01;;;;;;;;;0.25;0.00;;;;;-146.67;46.96;74186.47;5098163;27;62054;-78
2023/07/01 03:00:27;;;;;;;;;0.00;0.00;;;;;-146.67;46.96;74182.50;5082175;27;62052;-79
2023/07/01 03:02:53;;;;;;;;;2.50;0.00;;;;;-146.67;46.70;74178.50;5115437;27;63547;-78
2023/07/01 03:05:23;;;;;;;;;1.00;1.00;;;;;-146.67;46.73;74190.47;5102800;27;61911;-79
2023/07/01 03:07:48;;;;;;;;;0.75;0.75;;;;;-146.67;46.80;74178.50;5102228;27;61775;-79
2023/07/01 03:10:14;;;;;;;;;0.00;0.00;;;;;-146.67;46.63;74174.50;5102993;27;61707;-78
2023/07/01 03:12:39;;;;;;;;;0.25;0.25;;;;;-146.67;46.74;74166.50;5101410;27;61877;-78
2023/07/01 03:15:05;;;;;;;;;0.00;0.00;;;;;-146.67;47.04;74176.50;5102520;27;61877;-78
2023/07/01 03:17:31;;;;;;;;;1.00;0.75;;;;;-146.67;46.84;74168.50;5101123;27;61785;-78
2023/07/01 03:19:57;;;;;;;;;0.50;0.50;;;;;-146.67;46.84;74166.50;5098056;27;62173;-78
2023/07/01 03:22:22;;;;;;;;;0.50;0.25;;;;;-146.67;47.10;74166.50;5079838;28;64106;-78
2023/07/01 03:24:47;;;;;;;;;0.00;0.00;;;;;-146.67;46.99;74164.53;5097595;27;62008;-78
2023/07/01 03:27:13;;;;;;;;;0.00;0.00;;;;;-146.67;47.03;74166.50;5081796;27;61748;-78
2023/07/01 03:29:39;;;;;;;;;1.00;1.00;;;;;-146.67;47.29;74166.50;5097816;27;61849;-78
2023/07/01 03:32:05;;;;;;;;;1.00;1.00;;;;;-146.67;47.71;74174.50;5081709;28;61827;-78
2023/07/01 03:34:30;;;;;;;;;0.00;0.00;;;;;-146.67;47.46;74170.50;5081629;27;62449;-78
2023/07/01 03:36:56;;;;;;;;;0.75;0.75;;;;;-146.67;47.63;74170.50;5096980;27;61830;-78
2023/07/01 03:39:21;;;;;;;;;0.75;0.75;;;;;-146.67;48.18;74172.50;5082078;28;61808;-78
2023/07/01 03:41:47;;;;;;;;;0.25;0.00;;;;;-146.67;48.45;74178.50;5096246;27;63770;-78
2023/07/01 03:44:12;;;;;;;;;1.00;1.00;;;;;-146.67;48.69;74182.50;5081955;27;61921;-78
2023/07/01 03:46:38;;;;;;;;;1.00;0.25;;;;;-146.67;48.42;74184.47;5081626;27;62657;-78
2023/07/01 03:49:03;;;;;;;;;1.00;1.00;;;;;-146.67;48.37;74176.50;5096799;27;61785;-78
2023/07/01 03:51:30;;;;;;;;;0.00;0.00;;;;;-146.67;48.35;74168.50;5079666;28;63854;-78
2023/07/01 03:53:56;;;;;;;;;0.00;0.00;;;;;-146.67;48.55;74164.53;5098701;27;61773;-78
2023/07/01 03:56:21;;;;;;;;;0.00;0.00;;;;;-146.67;48.21;74170.50;5084707;27;61809;-78
2023/07/01 03:58:47;;;;;;;;;0.25;0.25;;;;;-146.67;48.88;74164.53;5085070;27;61747;-78
2023/07/01 04:01:16;;;;;;;;;0.00;0.00;;;;;-146.67;48.61;74152.53;5084469;27;62662;-78
2023/07/01 04:03:42;;;;;;;;;0.00;0.00;;;;;-146.67;48.08;74148.56;5100939;27;62026;-78
2023/07/01 04:06:08;;;;;;;;;0.00;0.00;;;;;-146.67;48.43;74154.53;5084822;27;61949;-78
2023/07/01 04:08:33;;;;;;;;;0.00;0.00;;;;;-146.67;48.07;74150.53;5085103;27;62094;-78
2023/07/01 04:10:59;;;;;;;;;0.25;0.25;;;;;-146.67;48.43;74150.53;5089263;27;61757;-78
2023/07/01 04:13:24;;;;;;;;;2.50;0.50;;;;;-146.67;48.49;74154.53;5104284;27;61910;-79
2023/07/01 04:15:50;;;;;;;;;1.00;1.00;;;;;-146.67;48.63;74150.53;5105300;27;62008;-79
2023/07/01 04:18:15;;;;;;;;;2.00;1.00;;;;;-146.67;48.60;74150.53;5104947;27;61907;-79
2023/07/01 04:20:41;;;;;;;;;1.25;1.25;;;;;-146.67;48.27;74144.56;5104424;27;62727;-79
2023/07/01 04:23:06;;;;;;;;;0.00;0.00;;;;;-146.67;48.64;74150.53;5105134;27;61733;-79
2023/07/01 04:25:32;;;;;;;;;0.00;0.00;;;;;-146.67;48.81;74144.56;5121249;27;61816;-79
2023/07/01 04:27:57;;;;;;;;;0.00;0.00;;;;;-146.67;48.36;74136.56;5100256;27;61848;-79
2023/07/01 04:30:23;;;;;;;;;0.00;0.00;;;;;-146.67;48.48;74140.56;5082663;27;64793;-79
2023/07/01 04:32:49;;;;;;;;;0.00;0.00;;;;;-146.67;48.63;74140.56;5084680;28;61793;-79
2023/07/01 04:35:15;;;;;;;;;0.00;0.00;;;;;-146.67;48.71;74138.56;5082701;28;62003;-79
2023/07/01 04:37:40;;;;;;;;;0.00;0.00;;;;;-146.67;48.27;74132.56;5083546;27;62198;-79
2023/07/01 04:40:07;;;;;;;;;0.00;0.00;;;;;-146.67;48.38;74138.56;5089859;27;62370;-79
2023/07/01 04:42:34;;;;;;;;;0.00;0.00;;;;;-146.67;48.66;74136.56;5104836;27;62116;-79
2023/07/01 04:45:00;;;;;;;;;0.00;0.00;;;;;-146.67;48.52;74120.59;5103618;27;61832;-79
2023/07/01 04:47:26;;;;;;;;;0.00;0.00;;;;;-146.67;48.65;74124.59;5103358;27;61773;-79
2023/07/01 04:49:54;;;;;;;;;0.00;0.00;;;;;-146.67;48.29;74120.59;5103981;27;63016;-79
2023/07/01 04:52:24;;;;;;;;;0.00;0.00;;;;;-146.67;48.29;74100.63;5104433;27;61868;-79
2023/07/01 04:54:51;;;;;;;;;0.00;0.00;;;;;-146.67;48.36;74098.66;5104607;27;61867;-79
2023/07/01 04:57:17;;;;;;;;;0.00;0.00;;;;;-146.67;48.24;74092.66;5102939;27;61886;-79
2023/07/01 04:59:42;;;;;;;;;0.00;0.00;;;;;-146.67;48.15;74098.66;5104267;27;61975;-80
2023/07/01 05:02:08;;;;;;;;;0.00;0.00;;;;;-146.67;48.20;74094.66;5104383;27;61828;-80
2023/07/01 05:04:33;;;;;;;;;0.75;0.00;;;;;-146.67;48.28;74084.66;5103980;27;61901;-80
2023/07/01 05:06:59;;;;;;;;;0.00;0.00;;;;;-146.67;48.16;74090.66;5104806;27;61804;-80
2023/07/01 05:09:24;;;;;;;;;0.00;0.00;;;;;-146.67;48.04;74084.66;5102612;27;63651;-79
2023/07/01 05:11:49;;;;;;;;;1.00;0.00;;;;;-146.67;48.29;74094.66;5100744;27;61763;-79
2023/07/01 05:14:15;;;;;;;;;0.00;0.00;;;;;-146.67;48.22;74084.66;5104515;27;62067;-79
2023/07/01 05:16:40;;;;;;;;;0.00;0.00;;;;;-146.67;48.06;74078.69;5104348;27;62004;-79
2023/07/01 05:19:06;;;;;;;;;0.00;0.00;;;;;-146.67;48.12;74070.69;5103146;27;62175;-79
2023/07/01 05:21:32;;;;;;;;;0.00;0.00;;;;;-146.67;48.24;74070.69;5104464;27;61772;-79
2023/07/01 05:23:58;;;;;;;;;0.75;0.00;;;;;-146.67;48.88;74088.66;5104573;27;61757;-79
2023/07/01 05:26:23;;;;;;;;;0.00;0.00;;;;;-146.67;48.68;74096.66;5102470;27;61761;-78
2023/07/01 05:28:49;;;;;;;;;1.00;0.00;;;;;-146.67;48.96;74082.69;5103678;27;62898;-79
2023/07/01 05:31:15;;;;;;;;;0.75;0.00;;;;;-146.67;48.77;74074.69;5102347;27;61706;-79
2023/07/01 05:33:44;;;;;;;;;0.00;0.00;;;;;-146.67;49.29;74078.69;5101987;27;61695;-79
2023/07/01 05:36:09;;;;;;;;;0.00;0.00;;;;;-146.67;49.38;74082.69;5104145;27;61853;-79
2023/07/01 05:38:35;;;;;;;;;0.00;0.00;;;;;-146.67;49.01;74072.69;5101902;27;63907;-78
2023/07/01 05:41:00;;;;;;;;;0.00;0.00;;;;;-146.67;49.02;74072.69;5103632;27;61893;-79
2023/07/01 05:43:25;;;;;;;;;0.00;0.00;;;;;-146.67;48.98;74072.69;5103837;27;61854;-79
2023/07/01 05:45:51;;;;;;;;;0.00;0.00;;;;;-146.67;48.65;74058.72;5103556;27;61979;-79
2023/07/01 05:48:16;;;;;;;;;0.00;0.00;;;;;-146.67;48.90;74062.72;5101231;27;63919;-80
2023/07/01 05:50:41;;;;;;;;;0.00;0.00;;;;;-146.67;48.83;74052.72;5103630;27;61862;-79
2023/07/01 05:53:07;;;;;;;;;0.00;0.00;;;;;-146.67;48.88;74042.75;5101928;27;61809;-79
2023/07/01 05:55:33;;;;;;;;;0.00;0.00;;;;;-146.67;48.67;74030.78;5103575;27;61981;-79
2023/07/01 05:57:58;;;;;;;;;0.00;0.00;;;;;-146.67;48.27;74026.78;5102821;27;61880;-79
2023/07/01 06:00:23;;;;;;;;;1.00;0.00;;;;;-146.67;48.51;74026.78;5103168;27;61868;-79
2023/07/01 06:02:49;;;;;;;;;0.00;0.00;;;;;-146.67;48.70;74024.78;5103874;27;61808;-79
2023/07/01 06:05:14;;;;;;;;;0.00;0.00;;;;;-146.67;48.49;74016.78;5103511;27;61919;-79
2023/07/01 06:07:40;;;;;;;;;0.00;0.00;;;;;-146.67;48.32;74012.81;5101297;27;63549;-80
2023/07/01 06:10:05;;;;;;;;;0.00;0.00;;;;;-146.67;48.29;74008.81;5103732;27;61780;-79
2023/07/01 06:12:31;;;;;;;;;0.00;0.00;;;;;-146.67;48.10;73990.84;5102916;27;62052;-79
2023/07/01 06:14:56;;;;;;;;;0.00;0.00;;;;;-146.67;48.10;73996.84;5101993;27;61843;-79
2023/07/01 06:17:21;;;;;;;;;1.00;0.00;;;;;-146.67;47.93;73972.88;5101658;27;62008;-79
2023/07/01 06:19:47;;;;;;;;;1.75;1.75;;;;;-146.67;47.88;73954.91;5100890;27;62114;-79
2023/07/01 06:22:12;;;;;;;;;2.50;2.50;;;;;-146.67;47.65;73917.00;5082988;27;61742;-79
2023/07/01 06:24:38;;;;;;;;;1.00;0.00;;;;;-146.67;47.34;73915.00;5082905;27;61828;-79
2023/07/01 06:27:04;;;;;;;;;0.00;0.00;;;;;-146.67;47.15;73915.00;5082192;27;63136;-79
2023/07/01 06:29:30;;;;;;;;;0.00;0.00;;;;;-146.67;47.51;73930.97;5098178;27;61794;-78
2023/07/01 06:31:55;;;;;;;;;0.00;0.00;;;;;-146.67;47.32;73928.97;5082667;27;61953;-78
2023/07/01 06:34:20;;;;;;;;;0.00;0.00;;;;;-146.67;47.49;73948.94;5101727;27;61824;-78
2023/07/01 06:36:46;;;;;;;;;0.00;0.00;;;;;-146.67;47.51;73926.97;5101665;27;61964;-79
2023/07/01 06:39:12;;;;;;;;;0.00;0.00;;;;;-146.67;47.59;73930.97;5102953;27;61696;-78
2023/07/01 06:41:38;;;;;;;;;0.75;0.00;;;;;-146.67;47.38;73911.00;5102828;27;62033;-76
2023/07/01 06:44:04;;;;;;;;;0.00;0.00;;;;;-146.67;47.47;73915.00;5101498;27;61815;-78
2023/07/01 06:46:29;;;;;;;;;0.00;0.00;;;;;-146.67;46.88;73883.06;5100799;27;64608;-78
2023/07/01 06:48:55;;;;;;;;;0.00;0.00;;;;;-146.67;46.94;73867.09;5087402;27;61930;-77
2023/07/01 06:51:20;;;;;;;;;0.00;0.00;;;;;-146.67;47.16;73893.03;5082686;27;61687;-78
2023/07/01 06:53:46;;;;;;;;;0.00;0.00;;;;;-146.67;47.01;73891.03;5089054;27;61762;-78
2023/07/01 06:56:12;;;;;;;;;0.50;0.00;;;;;-146.67;47.08;73895.03;5099532;27;64029;-78
2023/07/01 06:58:37;;;;;;;;;0.00;0.00;;;;;-146.67;47.18;73893.03;5101558;27;62215;-79
2023/07/01 07:01:03;;;;;;;;;0.00;0.00;;;;;-146.67;46.90;73889.03;5101408;27;61788;-78
2023/07/01 07:03:29;;;;;;;;;0.25;0.25;;;;;-146.67;46.76;73883.06;5102955;27;61798;-79
2023/07/01 07:05:55;;;;;;;;;0.00;0.00;;;;;-146.67;46.87;73889.03;5100190;27;64899;-79
2023/07/01 07:08:21;;;;;;;;;0.00;0.00;;;;;-146.67;46.95;73885.06;5102540;27;61785;-81
2023/07/01 07:10:46;;;;;;;;;0.00;0.00;;;;;-146.67;46.70;73879.06;5101936;27;61859;-80
2023/07/01 07:13:12;;;;;;;;;0.00;0.00;;;;;-146.67;46.95;73875.06;5101760;27;61840;-81
2023/07/01 07:15:38;;;;;;;;;0.00;0.00;;;;;-146.67;47.10;73863.09;5099772;27;64041;-82
2023/07/01 07:18:07;;;;;;;;;0.00;0.00;;;;;-146.67;46.93;73859.09;5101670;27;61793;-82
2023/07/01 07:20:33;;;;;;;;;0.00;0.00;;;;;-146.67;47.13;73849.13;5097703;27;61932;-81
2023/07/01 07:22:59;;;;;;;;;0.00;0.00;;;;;-146.67;46.89;73841.13;5082138;27;61741;-83
2023/07/01 07:25:24;;;;;;;;;0.00;0.00;;;;;-146.67;46.99;73833.16;5081559;27;62997;-82
2023/07/01 07:27:50;;;;;;;;;0.00;0.00;;;;;-146.67;46.44;73819.19;5083387;27;61928;-81
2023/07/01 07:30:15;;;;;;;;;0.00;0.00;;;;;-146.67;46.26;73797.22;5086616;27;61948;-77
2023/07/01 07:32:42;;;;;;;;;0.00;0.00;;;;;-146.67;45.94;73785.25;5113896;27;61813;-80
2023/07/01 07:35:08;;;;;;;;;0.00;0.00;;;;;-146.67;45.66;73771.28;5113622;27;63053;-76
2023/07/01 07:37:35;;;;;;;;;0.00;0.00;;;;;-146.67;45.54;73759.28;5109157;27;61790;-76
2023/07/01 07:40:04;;;;;;;;;0.00;0.00;;;;;-146.67;45.56;73747.31;5105619;27;61991;-76
2023/07/01 07:42:30;;;;;;;;;0.00;0.00;;;;;-146.67;45.12;73735.34;5105373;27;62086;-78
2023/07/01 07:44:55;;;;;;;;;0.00;0.00;;;;;-146.67;44.90;73721.38;5111690;27;63734;-76
2023/07/01 07:47:21;;;;;;;;;0.75;0.00;;;;;-146.67;44.87;73711.38;5112279;27;61792;-78
2023/07/01 07:49:46;;;;;;;;;0.50;0.50;;;;;-146.67;44.87;73697.41;5108427;27;61893;-84
2023/07/01 07:52:12;;;;;;;;;0.00;0.00;;;;;-146.67;44.57;73673.47;5112688;27;61813;-79
2023/07/01 07:54:37;;;;;;;;;0.25;0.00;;;;;-146.67;44.78;73673.47;5104461;27;62653;-80
2023/07/01 07:57:03;;;;;;;;;0.75;0.75;;;;;-146.67;44.50;73661.50;5103736;27;62377;-79
2023/07/01 07:59:29;;;;;;;;;0.00;0.00;;;;;-146.67;44.20;73663.47;5105710;27;61929;-79
2023/07/01 08:01:56;;;;;;;;;0.00;0.00;;;;;-146.67;44.08;73653.50;5093174;27;61877;-79
2023/07/01 08:04:22;;;;;;;;;1.00;0.00;;;;;-146.67;43.73;73639.53;5104687;27;61930;-79
2023/07/01 08:06:48;;;;;;;;;5.75;4.50;;;;;-146.67;44.05;73647.50;5121250;27;62225;-79
2023/07/01 08:09:13;;;;;;;;;2.00;1.75;;;;;-146.67;44.02;73645.53;5110298;27;62030;-80
2023/07/01 08:11:39;;;;;;;;;0.00;0.00;;;;;-146.67;44.14;73653.50;5092613;27;61886;-80
2023/07/01 08:14:04;;;;;;;;;0.00;0.00;;;;;-146.67;44.40;73659.50;5085879;27;63330;-80
2023/07/01 08:16:31;;;;;;;;;0.00;0.00;;;;;-146.67;45.04;73697.41;5125904;27;61966;-80
2023/07/01 08:18:57;;;;;;;;;0.50;0.50;;;;;-146.67;46.13;73753.31;5124837;27;61736;-80
2023/07/01 08:21:23;;;;;;;;;0.00;0.00;;;;;-146.67;46.71;73817.19;5105874;27;62280;-80
2023/07/01 08:23:48;;;;;;;;;0.00;0.00;;;;;-146.67;53.12;74012.81;5121691;27;62137;-81
2023/07/01 08:26:14;;;;;;;;;0.00;0.00;;;;;-146.67;71.23;74879.25;5123702;27;61894;-77
2023/07/01 08:28:39;;;;;;;;;0.25;0.00;;;;;-146.67;82.36;74863.28;5119156;27;62035;-79
2023/07/01 08:31:04;;;;;;;;;0.00;0.00;;;;;-146.67;81.77;74979.09;5126081;27;61753;-79
2023/07/01 08:33:30;;;;;;;;;0.00;0.00;;;;;-146.67;80.28;74949.13;5121812;27;64515;-79
2023/07/01 08:35:58;;;;;;;;;0.00;0.00;;;;;-146.67;76.76;74849.31;5104929;27;61750;-80
2023/07/01 08:38:25;;;;;;;;;1.00;0.00;;;;;-146.67;83.05;74875.25;5110868;27;61934;-79
2023/07/01 08:40:52;;;;;;;;;0.00;0.00;;;;;-146.67;75.31;74619.69;5115298;27;61864;-80
2023/07/01 08:43:23;;;;;;;;;0.00;0.00;;;;;-146.67;75.37;74579.78;5102801;27;62030;-80
2023/07/01 08:45:52;;;;;;;;;0.00;0.00;;;;;-146.67;74.31;74519.88;5084913;27;61817;-80
2023/07/01 08:48:21;;;;;;;;;0.25;0.00;;;;;-146.67;74.67;74499.91;5083939;27;61781;-79
2023/07/01 08:51:10;;;;;;;;;0.00;0.00;;;;;-146.67;72.71;74414.06;5083564;27;61806;-79
2023/07/01 08:53:37;;;;;;;;;0.00;0.00;;;;;-146.67;68.33;74320.22;5081517;27;65006;-79
2023/07/01 08:56:03;;;;;;;;;0.00;0.00;;;;;-146.67;68.32;74330.22;5083363;27;62008;-79
2023/07/01 08:58:29;;;;;;;;;0.00;0.00;;;;;-146.67;65.80;74274.31;5083502;27;61821;-79
2023/07/01 09:00:56;;;;;;;;;0.00;0.00;;;;;-146.67;67.40;74304.25;5084271;27;61809;-79
2023/07/01 09:03:22;;;;;;;;;0.00;0.00;;;;;-146.67;65.93;74270.31;5083632;27;62978;-79
2023/07/01 09:05:48;;;;;;;;;1.75;0.25;;;;;-146.67;60.76;74154.53;5084220;27;61943;-78
2023/07/01 09:08:13;;;;;;;;;0.25;0.25;;;;;-146.67;56.71;74094.66;5083869;27;61707;-79
2023/07/01 09:10:38;;;;;;;;;0.75;0.75;;;;;-146.67;54.81;74060.72;5082565;27;61951;-78
2023/07/01 09:13:13;;;;;;;;;2.00;1.00;;;;;-146.67;54.81;74028.78;5102836;27;62289;-79
2023/07/01 09:15:43;;;;;;;;;0.00;0.00;;;;;-146.67;53.75;73980.88;5104279;27;61819;-78
2023/07/01 09:18:19;;;;;;;;;0.00;0.00;;;;;-146.67;51.82;73938.94;5104069;27;61924;-79
2023/07/01 09:20:44;;;;;;;;;1.25;0.00;;;;;-146.67;51.21;73881.06;5094183;27;61788;-79
2023/07/01 09:23:09;;;;;;;;;1.75;0.00;;;;;-146.67;51.60;73857.09;5082832;27;61718;-79
2023/07/01 09:25:35;;;;;;;;;1.00;0.00;;;;;-146.67;49.48;73829.16;5083045;27;61784;-79
2023/07/01 09:28:00;;;;;;;;;0.00;0.00;;;;;-146.67;48.91;73821.19;5112297;27;61974;-83
2023/07/01 09:30:28;;;;;;;;;1.00;0.00;;;;;-146.67;48.66;73863.09;5102282;27;62193;-85
2023/07/01 09:33:10;;;;;;;;;0.00;0.00;;;;;-146.67;49.97;73954.91;5101300;27;62025;-82
2023/07/01 09:35:44;;;;;;;;;1.00;0.75;;;;;-146.67;50.13;73974.88;5125384;27;62386;-83
2023/07/01 09:38:09;;;;;;;;;0.75;0.00;;;;;-146.67;49.41;73958.91;5101514;27;61977;-83
2023/07/01 09:40:35;;;;;;;;;0.00;0.00;;;;;-146.67;48.88;73930.97;5101902;27;61792;-82
2023/07/01 09:43:00;;;;;;;;;0.50;0.50;;;;;-146.67;48.44;73899.03;5101428;27;64435;-82
2023/07/01 09:45:26;;;;;;;;;0.50;0.00;;;;;-146.67;47.88;73879.06;5103526;27;61856;-82
2023/07/01 09:47:52;;;;;;;;;0.00;0.00;;;;;-146.67;47.02;73859.09;5102601;27;61688;-83
2023/07/01 09:50:21;;;;;;;;;0.00;0.00;;;;;-146.67;48.91;73845.13;5102105;27;62143;-83
2023/07/01 09:52:48;;;;;;;;;0.00;0.00;;;;;-146.67;46.29;73769.28;5100907;27;64092;-83
2023/07/01 09:55:14;;;;;;;;;0.00;0.00;;;;;-146.67;45.89;73691.44;5109603;27;61877;-83
2023/07/01 09:57:40;;;;;;;;;0.00;0.00;;;;;-146.67;45.67;73623.56;5111891;27;62104;-83
2023/07/01 10:00:07;;;;;;;;;0.00;0.00;;;;;-146.67;44.61;73569.66;5113828;27;62080;-83
2023/07/01 10:02:33;;;;;;;;;0.75;0.75;;;;;-146.67;43.99;73573.66;5115816;27;64454;-83
2023/07/01 10:05:01;;;;;;;;;0.00;0.00;;;;;-146.67;44.09;73539.72;5110549;27;61886;-82
2023/07/01 10:07:26;;;;;;;;;0.00;0.00;;;;;-146.67;42.42;73541.72;5109906;27;62072;-82
2023/07/01 10:09:52;;;;;;;;;0.00;0.00;;;;;-146.67;42.21;73539.72;5114831;27;61754;-83
2023/07/01 10:12:20;;;;;;;;;0.00;0.00;;;;;-146.67;42.83;73521.78;5102722;27;63812;-83
2023/07/01 10:14:52;;;;;;;;;0.00;0.00;;;;;-146.67;41.61;73489.84;5101918;27;61858;-83
2023/07/01 10:17:18;;;;;;;;;1.00;0.75;;;;;-146.67;40.69;73447.91;5101281;27;62008;-80
2023/07/01 10:19:46;;;;;;;;;0.00;0.00;;;;;-146.67;40.02;73503.81;5103669;27;61873;-81
2023/07/01 10:22:29;;;;;;;;;0.00;0.00;;;;;-146.67;40.71;73469.88;5102933;27;62968;-80
2023/07/01 10:24:58;;;;;;;;;0.00;0.00;;;;;-146.67;40.57;73447.91;5103015;27;61738;-80
2023/07/01 10:27:44;;;;;;;;;0.00;0.00;;;;;-146.67;39.19;73469.88;5103753;27;61725;-80
2023/07/01 10:30:12;;;;;;;;;0.00;0.00;;;;;-146.67;40.01;73443.94;5102652;27;62426;-80
2023/07/01 10:32:37;;;;;;;;;1.50;0.00;;;;;-146.67;39.91;73419.97;5102226;27;62044;-80
2023/07/01 10:35:13;;;;;;;;;0.25;0.25;;;;;-146.67;39.22;73386.03;5103470;27;61799;-81
2023/07/01 10:37:39;;;;;;;;;0.00;0.00;;;;;-146.67;38.99;73384.06;5103128;27;61899;-81
2023/07/01 10:40:29;;;;;;;;;0.33;0.33;;;;;-146.67;39.35;73364.09;5102850;27;61781;-80
2023/07/01 10:43:34;;;;;;;;;1.00;0.33;;;;;-146.67;38.69;73302.22;5102635;27;63105;-80
2023/07/01 10:46:20;;;;;;;;;0.25;0.25;;;;;-146.67;37.67;73312.19;5080156;28;61844;-80
2023/07/01 10:49:03;;;;;;;;;0.00;0.00;;;;;-146.67;37.54;73306.22;5080065;28;62166;-80
2023/07/01 10:51:48;;;;;;;;;2.00;1.00;;;;;-146.67;38.15;73290.25;5080604;28;62013;-80
2023/07/01 10:54:29;;;;;;;;;1.50;0.50;;;;;-146.67;37.80;73252.31;5062008;28;63986;-80
2023/07/01 10:57:18;;;;;;;;;0.00;0.00;;;;;-146.67;37.88;73300.22;5080473;28;61805;-80
2023/07/01 10:59:44;;;;;;;;;0.00;0.00;;;;;-146.67;37.17;73284.25;5081095;28;61971;-80
2023/07/01 11:02:11;;;;;;;;;0.00;0.00;;;;;-146.67;36.86;73256.31;5063165;28;62212;-81
2023/07/01 11:04:51;;;;;;;;;0.00;0.00;;;;;-146.67;36.62;73110.63;5079303;28;62187;-79
2023/07/01 11:07:24;;;;;;;;;0.67;0.67;;;;;-146.67;36.04;73132.56;5081148;28;61936;-81
2023/07/01 11:09:50;;;;;;;;;1.33;1.33;;;;;-146.67;35.52;73134.56;5063835;28;61910;-81
2023/07/01 11:12:15;;;;;;;;;0.00;0.00;;;;;-146.67;36.17;73172.50;5059442;28;62203;-81
2023/07/01 11:14:41;;;;;;;;;0.33;0.00;;;;;-146.67;36.23;73270.28;5060201;28;62084;-80
2023/07/01 11:17:17;;;;;;;;;1.00;0.00;;;;;-146.67;37.01;73336.16;5059591;28;62482;-80